Dades meteomassalio
Diari Summary for Marc 4, 2018 Units:  Both    English   Metric
« Previous Day
Next Day »
Diari Semanal Mensual Anual Personalitzat
  Maxima: Minima: Mijana:
Temperatura: TemperatureC °F /  -17.8 °C 3.3 °F /  -15.9 °C 9.7 °F /  -12.4 °C
Rosada: DewpointC °F /  -17.8 °C 1.3 °F /  -17.1 °C 4.7 °F /  -15.2 °C
Humitat: Humidity % 48 % 72 %
Velocitat del vent: WindSpeedKMH mph /  0 km/h - 5.5 mph /  8.9 km/h
Racha vent: WindSpeedGustKMH mph /  0 km/h - -
Vent:- - West
Pressio: PressurehPa in /  0 hPa 998.2 in /  33799.1 hPa -
Pluja: 0.3 in /  7.62 mm    
Historical Graphs
 
 
Tabular Data for Marc 4, 2018
Time Temperature Dew Point Pressure Wind Wind Speed Wind Gust Humidity Rainfall Rate (Hourly) solar Conditions
TemperatureC °F /  -17.8 °C DewpointC °F /  -17.8 °C PressurehPa in /  0 hPa Calm     Humidity % HourlyPrecipMM in /  0 mm SolarRadiationWatts/m^2 W/m2 Conditions
00:03 7.2 °F /  -13.8 °C 3.4 °F /  -15.9 °C 1000.9 in /  33890.5 hPa Calm     77 % 0.0 in /  0 mm 0.0 W/m2 CLR
00:08 6.7 °F /  -14.1 °C 3.1 °F /  -16.1 °C 1001.2 in /  33900.6 hPa Calm     78 % 0.0 in /  0 mm 0.0 W/m2 CLR
00:13 6.7 °F /  -14.1 °C 3.1 °F /  -16.1 °C 1001.2 in /  33900.6 hPa Calm     78 % 0.0 in /  0 mm 0.0 W/m2 CLR
00:18 6.7 °F /  -14.1 °C 3.1 °F /  -16.1 °C 1001.2 in /  33900.6 hPa Calm     78 % 0.0 in /  0 mm 0.0 W/m2 CLR
00:23 6.7 °F /  -14.1 °C 3.1 °F /  -16.1 °C 1000.9 in /  33890.5 hPa Calm     78 % 0.0 in /  0 mm 0.0 W/m2 CLR
00:28 6.1 °F /  -14.4 °C 2.4 °F /  -16.4 °C 1000.9 in /  33890.5 hPa Calm     77 % 0.0 in /  0 mm 0.0 W/m2 CLR
00:33 6.1 °F /  -14.4 °C 2.4 °F /  -16.4 °C 1000.9 in /  33890.5 hPa Calm     77 % 0.0 in /  0 mm 0.0 W/m2 CLR
00:38 6.1 °F /  -14.4 °C 2.4 °F /  -16.4 °C 1000.9 in /  33890.5 hPa Calm     77 % 0.0 in /  0 mm 0.0 W/m2 CLR
00:43 6.1 °F /  -14.4 °C 2.0 °F /  -16.7 °C 1000.9 in /  33890.5 hPa Calm     75 % 0.0 in /  0 mm 0.0 W/m2 CLR
00:48 6.1 °F /  -14.4 °C 1.8 °F /  -16.8 °C 1000.9 in /  33890.5 hPa Calm     74 % 0.0 in /  0 mm 0.0 W/m2 CLR
00:53 6.1 °F /  -14.4 °C 1.6 °F /  -16.9 °C 1000.9 in /  33890.5 hPa Calm     73 % 0.0 in /  0 mm 0.0 W/m2 CLR
00:58 6.1 °F /  -14.4 °C 1.6 °F /  -16.9 °C 1000.9 in /  33890.5 hPa Calm     73 % 0.0 in /  0 mm 0.0 W/m2 CLR
01:03 6.1 °F /  -14.4 °C 1.8 °F /  -16.8 °C 1000.9 in /  33890.5 hPa Calm     74 % 0.0 in /  0 mm 0.0 W/m2 CLR
01:08 6.7 °F /  -14.1 °C 2.6 °F /  -16.3 °C 1000.9 in /  33890.5 hPa Calm     75 % 0.0 in /  0 mm 0.0 W/m2 CLR
01:13 6.7 °F /  -14.1 °C 2.9 °F /  -16.2 °C 1000.9 in /  33890.5 hPa Calm     77 % 0.0 in /  0 mm 0.0 W/m2 CLR
01:18 6.7 °F /  -14.1 °C 3.1 °F /  -16.1 °C 1000.9 in /  33890.5 hPa Calm     78 % 0.0 in /  0 mm 0.0 W/m2 CLR
01:23 6.7 °F /  -14.1 °C 3.1 °F /  -16.1 °C 1000.6 in /  33880.3 hPa Calm     78 % 0.0 in /  0 mm 0.0 W/m2 CLR
01:28 6.7 °F /  -14.1 °C 2.9 °F /  -16.2 °C 1000.6 in /  33880.3 hPa Calm     77 % 0.0 in /  0 mm 0.0 W/m2 CLR
01:33 6.7 °F /  -14.1 °C 2.9 °F /  -16.2 °C 1000.6 in /  33880.3 hPa Calm     77 % 0.0 in /  0 mm 0.0 W/m2 CLR
01:38 6.7 °F /  -14.1 °C 2.7 °F /  -16.3 °C 1000.6 in /  33880.3 hPa Calm     76 % 0.0 in /  0 mm 0.0 W/m2 CLR
01:43 6.7 °F /  -14.1 °C 2.9 °F /  -16.2 °C 1000.6 in /  33880.3 hPa Calm     77 % 0.0 in /  0 mm 0.0 W/m2 CLR
01:48 6.7 °F /  -14.1 °C 3.1 °F /  -16.1 °C 1000.6 in /  33880.3 hPa Calm     78 % 0.0 in /  0 mm 0.0 W/m2 CLR
01:53 6.7 °F /  -14.1 °C 3.3 °F /  -15.9 °C 1000.6 in /  33880.3 hPa Calm     79 % 0.0 in /  0 mm 0.0 W/m2 CLR
01:58 6.7 °F /  -14.1 °C 3.3 °F /  -15.9 °C 1000.6 in /  33880.3 hPa Calm     79 % 0.0 in /  0 mm 0.0 W/m2 CLR
02:03 7.2 °F /  -13.8 °C 3.8 °F /  -15.7 °C 1000.6 in /  33880.3 hPa Calm     79 % 0.0 in /  0 mm 0.0 W/m2 CLR
02:08 7.2 °F /  -13.8 °C 4.0 °F /  -15.6 °C 1000.2 in /  33866.8 hPa Calm     80 % 0.0 in /  0 mm 0.0 W/m2 CLR
02:13 7.2 °F /  -13.8 °C 3.8 °F /  -15.7 °C 1000.2 in /  33866.8 hPa Calm     79 % 0.0 in /  0 mm 0.0 W/m2 CLR
02:18 7.2 °F /  -13.8 °C 3.7 °F /  -15.7 °C 1000.2 in /  33866.8 hPa Calm     78 % 0.0 in /  0 mm 0.0 W/m2 CLR
02:23 7.2 °F /  -13.8 °C 3.7 °F /  -15.7 °C 1000.2 in /  33866.8 hPa Calm     78 % 0.0 in /  0 mm 0.0 W/m2 CLR
02:28 7.2 °F /  -13.8 °C 3.4 °F /  -15.9 °C 1000.2 in /  33866.8 hPa Calm     77 % 0.0 in /  0 mm 0.0 W/m2 CLR
02:33 7.2 °F /  -13.8 °C 3.7 °F /  -15.7 °C 999.9 in /  33856.6 hPa Calm     78 % 0.0 in /  0 mm 0.0 W/m2 CLR
02:38 7.2 °F /  -13.8 °C 3.7 °F /  -15.7 °C 999.9 in /  33856.6 hPa Calm     78 % 0.0 in /  0 mm 0.0 W/m2 CLR
02:43 7.2 °F /  -13.8 °C 3.7 °F /  -15.7 °C 999.9 in /  33856.6 hPa Calm     78 % 0.0 in /  0 mm 0.0 W/m2 CLR
02:48 7.2 °F /  -13.8 °C 3.7 °F /  -15.7 °C 999.9 in /  33856.6 hPa Calm     78 % 0.0 in /  0 mm 0.0 W/m2 CLR
02:53 7.2 °F /  -13.8 °C 3.7 °F /  -15.7 °C 999.9 in /  33856.6 hPa Calm     78 % 0.0 in /  0 mm 0.0 W/m2 CLR
02:58 7.2 °F /  -13.8 °C 3.8 °F /  -15.7 °C 999.9 in /  33856.6 hPa Calm     79 % 0.0 in /  0 mm 0.0 W/m2 CLR
03:03 7.2 °F /  -13.8 °C 4.0 °F /  -15.6 °C 999.9 in /  33856.6 hPa Calm     80 % 0.0 in /  0 mm 0.0 W/m2 CLR
03:08 7.2 °F /  -13.8 °C 4.2 °F /  -15.4 °C 999.5 in /  33843.1 hPa Calm     81 % 0.0 in /  0 mm 0.0 W/m2 CLR
03:13 7.2 °F /  -13.8 °C 4.3 °F /  -15.4 °C 999.5 in /  33843.1 hPa Calm     82 % 0.0 in /  0 mm 0.0 W/m2 CLR
03:18 7.2 °F /  -13.8 °C 4.3 °F /  -15.4 °C 999.5 in /  33843.1 hPa Calm     82 % 0.0 in /  0 mm 0.0 W/m2 CLR
03:24 7.2 °F /  -13.8 °C 4.3 °F /  -15.4 °C 999.5 in /  33843.1 hPa Calm     82 % 0.0 in /  0 mm 0.0 W/m2 CLR
03:29 7.2 °F /  -13.8 °C 4.5 °F /  -15.3 °C 999.5 in /  33843.1 hPa Calm     83 % 0.0 in /  0 mm 0.0 W/m2 CLR
03:34 7.2 °F /  -13.8 °C 4.5 °F /  -15.3 °C 999.5 in /  33843.1 hPa Calm     83 % 0.0 in /  0 mm 0.0 W/m2 CLR
03:39 7.2 °F /  -13.8 °C 4.5 °F /  -15.3 °C 999.2 in /  33832.9 hPa Calm     83 % 0.0 in /  0 mm 0.0 W/m2 CLR
03:44 7.2 °F /  -13.8 °C 4.5 °F /  -15.3 °C 999.2 in /  33832.9 hPa Calm     83 % 0.0 in /  0 mm 0.0 W/m2 CLR
03:49 7.2 °F /  -13.8 °C 4.5 °F /  -15.3 °C 999.2 in /  33832.9 hPa Calm     83 % 0.0 in /  0 mm 0.0 W/m2 CLR
03:54 7.8 °F /  -13.4 °C 5.1 °F /  -14.9 °C 999.2 in /  33832.9 hPa Calm     83 % 0.0 in /  0 mm 0.0 W/m2 CLR
03:59 7.8 °F /  -13.4 °C 5.1 °F /  -14.9 °C 999.2 in /  33832.9 hPa Calm     83 % 0.0 in /  0 mm 0.0 W/m2 CLR
04:04 7.8 °F /  -13.4 °C 5.1 °F /  -14.9 °C 999.2 in /  33832.9 hPa Calm     83 % 0.0 in /  0 mm 0.0 W/m2 CLR
04:09 7.8 °F /  -13.4 °C 5.1 °F /  -14.9 °C 999.2 in /  33832.9 hPa Calm     83 % 0.0 in /  0 mm 0.0 W/m2 CLR
04:14 7.8 °F /  -13.4 °C 5.1 °F /  -14.9 °C 999.2 in /  33832.9 hPa Calm     83 % 0.0 in /  0 mm 0.0 W/m2 CLR
04:19 7.8 °F /  -13.4 °C 4.9 °F /  -15.1 °C 999.2 in /  33832.9 hPa Calm     82 % 0.0 in /  0 mm 0.0 W/m2 CLR
04:24 7.8 °F /  -13.4 °C 4.9 °F /  -15.1 °C 999.2 in /  33832.9 hPa Calm     82 % 0.0 in /  0 mm 0.0 W/m2 CLR
04:29 7.8 °F /  -13.4 °C 4.7 °F /  -15.2 °C 999.2 in /  33832.9 hPa Calm     81 % 0.0 in /  0 mm 0.0 W/m2 CLR
04:34 7.8 °F /  -13.4 °C 4.7 °F /  -15.2 °C 999.2 in /  33832.9 hPa Calm     81 % 0.0 in /  0 mm 0.0 W/m2 CLR
04:39 7.8 °F /  -13.4 °C 4.7 °F /  -15.2 °C 998.9 in /  33822.8 hPa Calm     81 % 0.0 in /  0 mm 0.0 W/m2 CLR
04:44 7.8 °F /  -13.4 °C 4.6 °F /  -15.2 °C 998.9 in /  33822.8 hPa Calm     80 % 0.0 in /  0 mm 0.0 W/m2 CLR
04:49 7.8 °F /  -13.4 °C 4.7 °F /  -15.2 °C 998.9 in /  33822.8 hPa Calm     81 % 0.0 in /  0 mm 0.0 W/m2 CLR
04:54 7.8 °F /  -13.4 °C 4.9 °F /  -15.1 °C 998.9 in /  33822.8 hPa Calm     82 % 0.0 in /  0 mm 0.0 W/m2 CLR
04:59 7.8 °F /  -13.4 °C 4.9 °F /  -15.1 °C 998.9 in /  33822.8 hPa Calm     82 % 0.0 in /  0 mm 0.0 W/m2 CLR
05:04 7.2 °F /  -13.8 °C 4.5 °F /  -15.3 °C 998.9 in /  33822.8 hPa Calm     83 % 0.0 in /  0 mm 0.0 W/m2 CLR
05:09 7.2 °F /  -13.8 °C 4.5 °F /  -15.3 °C 998.9 in /  33822.8 hPa Calm     83 % 0.0 in /  0 mm 0.0 W/m2 CLR
05:14 7.2 °F /  -13.8 °C 4.5 °F /  -15.3 °C 998.5 in /  33809.2 hPa Calm     83 % 0.0 in /  0 mm 0.0 W/m2 CLR
05:19 7.2 °F /  -13.8 °C 4.5 °F /  -15.3 °C 998.5 in /  33809.2 hPa Calm     83 % 0.0 in /  0 mm 0.0 W/m2 CLR
05:24 7.2 °F /  -13.8 °C 4.3 °F /  -15.4 °C 998.5 in /  33809.2 hPa Calm     82 % 0.0 in /  0 mm 0.0 W/m2 CLR
05:29 7.2 °F /  -13.8 °C 4.3 °F /  -15.4 °C 998.5 in /  33809.2 hPa Calm     82 % 0.0 in /  0 mm 0.0 W/m2 CLR
05:34 7.2 °F /  -13.8 °C 4.3 °F /  -15.4 °C 998.5 in /  33809.2 hPa Calm     82 % 0.0 in /  0 mm 0.0 W/m2 CLR
05:39 7.2 °F /  -13.8 °C 4.3 °F /  -15.4 °C 998.5 in /  33809.2 hPa Calm     82 % 0.0 in /  0 mm 0.0 W/m2 CLR
05:44 7.2 °F /  -13.8 °C 4.3 °F /  -15.4 °C 998.5 in /  33809.2 hPa Calm     82 % 0.0 in /  0 mm 0.0 W/m2 CLR
05:49 7.2 °F /  -13.8 °C 4.3 °F /  -15.4 °C 998.5 in /  33809.2 hPa Calm     82 % 0.0 in /  0 mm 0.0 W/m2 CLR
05:54 7.2 °F /  -13.8 °C 4.5 °F /  -15.3 °C 998.5 in /  33809.2 hPa Calm     83 % 0.0 in /  0 mm 0.0 W/m2 CLR
05:59 7.2 °F /  -13.8 °C 4.7 °F /  -15.2 °C 998.5 in /  33809.2 hPa Calm     84 % 0.0 in /  0 mm 0.0 W/m2 CLR
06:04 7.2 °F /  -13.8 °C 4.7 °F /  -15.2 °C 998.9 in /  33822.8 hPa Calm     84 % 0.0 in /  0 mm 0.0 W/m2 CLR
06:09 7.2 °F /  -13.8 °C 4.7 °F /  -15.2 °C 998.9 in /  33822.8 hPa Calm     84 % 0.0 in /  0 mm 0.0 W/m2 CLR
06:14 7.8 °F /  -13.4 °C 5.4 °F /  -14.8 °C 998.9 in /  33822.8 hPa Calm     85 % 0.0 in /  0 mm 0.0 W/m2 CLR
06:19 7.8 °F /  -13.4 °C 5.4 °F /  -14.8 °C 998.9 in /  33822.8 hPa Calm     85 % 0.0 in /  0 mm 0.0 W/m2 CLR
06:24 7.8 °F /  -13.4 °C 5.6 °F /  -14.7 °C 998.5 in /  33809.2 hPa Calm     86 % 0.0 in /  0 mm 0.0 W/m2 CLR
06:29 7.8 °F /  -13.4 °C 5.6 °F /  -14.7 °C 998.5 in /  33809.2 hPa Calm     86 % 0.0 in /  0 mm 0.0 W/m2 CLR
06:34 7.8 °F /  -13.4 °C 5.4 °F /  -14.8 °C 998.5 in /  33809.2 hPa Calm     85 % 0.0 in /  0 mm 0.0 W/m2 CLR
06:39 8.3 °F /  -13.2 °C 6.1 °F /  -14.4 °C 998.5 in /  33809.2 hPa Calm     86 % 0.0 in /  0 mm 0.0 W/m2 CLR
06:44 8.3 °F /  -13.2 °C 6.1 °F /  -14.4 °C 998.5 in /  33809.2 hPa Calm     86 % 0.0 in /  0 mm 0.0 W/m2 CLR
06:49 8.3 °F /  -13.2 °C 6.1 °F /  -14.4 °C 998.5 in /  33809.2 hPa Calm     86 % 0.0 in /  0 mm 0.0 W/m2 CLR
06:54 8.3 °F /  -13.2 °C 6.1 °F /  -14.4 °C 998.2 in /  33799.1 hPa Calm     86 % 0.0 in /  0 mm 0.0 W/m2 CLR
06:59 8.3 °F /  -13.2 °C 5.9 °F /  -14.5 °C 998.2 in /  33799.1 hPa Calm     85 % 0.0 in /  0 mm 0.0 W/m2 CLR
07:04 8.3 °F /  -13.2 °C 5.9 °F /  -14.5 °C 998.5 in /  33809.2 hPa Calm     85 % 0.0 in /  0 mm 0.0 W/m2 CLR
07:09 8.3 °F /  -13.2 °C 5.6 °F /  -14.7 °C 998.2 in /  33799.1 hPa Calm     83 % 0.0 in /  0 mm 0.0 W/m2 CLR
07:14 8.3 °F /  -13.2 °C 5.4 °F /  -14.8 °C 998.2 in /  33799.1 hPa Calm     82 % 0.0 in /  0 mm 0.0 W/m2 CLR
07:19 8.3 °F /  -13.2 °C 5.3 °F /  -14.8 °C 998.5 in /  33809.2 hPa Calm     81 % 0.0 in /  0 mm 0.0 W/m2 OVC
07:24 8.3 °F /  -13.2 °C 5.1 °F /  -14.9 °C 998.5 in /  33809.2 hPa Calm     80 % 0.0 in /  0 mm 0.0 W/m2 OVC
07:29 8.3 °F /  -13.2 °C 5.1 °F /  -14.9 °C 998.5 in /  33809.2 hPa Calm     80 % 0.0 in /  0 mm 0.0 W/m2 OVC
07:34 8.3 °F /  -13.2 °C 5.1 °F /  -14.9 °C 998.5 in /  33809.2 hPa Calm     80 % 0.0 in /  0 mm 0.0 W/m2 OVC
07:39 8.3 °F /  -13.2 °C 5.3 °F /  -14.8 °C 998.5 in /  33809.2 hPa Calm     81 % 0.0 in /  0 mm 7.0 W/m2 OVC
07:44 8.3 °F /  -13.2 °C 5.4 °F /  -14.8 °C 998.5 in /  33809.2 hPa Calm     82 % 0.0 in /  0 mm 23.0 W/m2 BKN
07:49 8.3 °F /  -13.2 °C 5.4 °F /  -14.8 °C 998.5 in /  33809.2 hPa Calm     82 % 0.0 in /  0 mm 37.0 W/m2 BKN
07:54 8.3 °F /  -13.2 °C 5.4 °F /  -14.8 °C 998.5 in /  33809.2 hPa Calm     82 % 0.0 in /  0 mm 46.0 W/m2 SCT
07:59 8.3 °F /  -13.2 °C 5.4 °F /  -14.8 °C 998.9 in /  33822.8 hPa Calm     82 % 0.0 in /  0 mm 40.0 W/m2 BKN
08:04 8.3 °F /  -13.2 °C 5.6 °F /  -14.7 °C 998.9 in /  33822.8 hPa Calm     83 % 0.0 in /  0 mm 25.0 W/m2 BKN
08:09 8.3 °F /  -13.2 °C 5.6 °F /  -14.7 °C 998.9 in /  33822.8 hPa Calm     83 % 0.0 in /  0 mm 26.0 W/m2 BKN
08:14 8.9 °F /  -12.8 °C 6.2 °F /  -14.3 °C 998.9 in /  33822.8 hPa Calm     83 % 0.0 in /  0 mm 35.0 W/m2 BKN
08:19 8.9 °F /  -12.8 °C 6.3 °F /  -14.3 °C 998.9 in /  33822.8 hPa Calm     84 % 0.0 in /  0 mm 42.0 W/m2 BKN
08:24 8.9 °F /  -12.8 °C 6.3 °F /  -14.3 °C 998.9 in /  33822.8 hPa Calm     84 % 0.0 in /  0 mm 49.0 W/m2 SCT
08:29 8.9 °F /  -12.8 °C 6.5 °F /  -14.2 °C 998.9 in /  33822.8 hPa Calm     85 % 0.0 in /  0 mm 63.0 W/m2 SCT
08:34 8.9 °F /  -12.8 °C 6.5 °F /  -14.2 °C 998.9 in /  33822.8 hPa Calm     85 % 0.0 in /  0 mm 81.0 W/m2 SCT
08:39 9.4 °F /  -12.6 °C 7.1 °F /  -13.8 °C 998.9 in /  33822.8 hPa Calm     85 % 0.0 in /  0 mm 81.0 W/m2 FEW
08:44 9.4 °F /  -12.6 °C 7.2 °F /  -13.8 °C 998.9 in /  33822.8 hPa Calm     86 % 0.0 in /  0 mm 84.0 W/m2 FEW
08:49 9.4 °F /  -12.6 °C 7.2 °F /  -13.8 °C 998.9 in /  33822.8 hPa Calm     86 % 0.0 in /  0 mm 90.0 W/m2 FEW
08:54 9.4 °F /  -12.6 °C 7.2 °F /  -13.8 °C 998.9 in /  33822.8 hPa Calm     86 % 0.0 in /  0 mm 111.0 W/m2 CLR
08:59 10.0 °F /  -12.2 °C 7.8 °F /  -13.4 °C 999.2 in /  33832.9 hPa Calm     86 % 0.0 in /  0 mm 130.0 W/m2 CLR
09:04 10.0 °F /  -12.2 °C 7.8 °F /  -13.4 °C 998.9 in /  33822.8 hPa Calm     86 % 0.0 in /  0 mm 153.0 W/m2 CLR
09:09 10.0 °F /  -12.2 °C 7.6 °F /  -13.6 °C 998.9 in /  33822.8 hPa Calm     85 % 0.0 in /  0 mm 156.0 W/m2 CLR
09:14 10.6 °F /  -11.9 °C 8.3 °F /  -13.2 °C 998.9 in /  33822.8 hPa Calm     86 % 0.3 in /  7.62 mm 149.0 W/m2 RA
09:19 10.6 °F /  -11.9 °C 8.3 °F /  -13.2 °C 998.9 in /  33822.8 hPa Calm     86 % 0.3 in /  7.62 mm 195.0 W/m2 CLR
09:24 10.6 °F /  -11.9 °C 8.3 °F /  -13.2 °C 998.9 in /  33822.8 hPa Calm     86 % 0.3 in /  7.62 mm 197.0 W/m2 CLR
09:29 11.1 °F /  -11.6 °C 8.8 °F /  -12.9 °C 998.9 in /  33822.8 hPa Calm     86 % 0.3 in /  7.62 mm 220.0 W/m2 CLR
09:34 11.1 °F /  -11.6 °C 8.7 °F /  -12.9 °C 998.9 in /  33822.8 hPa Calm     85 % 0.3 in /  7.62 mm 281.0 W/m2 CLR
09:39 11.1 °F /  -11.6 °C 8.7 °F /  -12.9 °C 998.9 in /  33822.8 hPa Calm     85 % 0.3 in /  7.62 mm 348.0 W/m2 CLR
09:44 11.7 °F /  -11.3 °C 9.1 °F /  -12.7 °C 998.9 in /  33822.8 hPa Calm     84 % 0.3 in /  7.62 mm 153.0 W/m2 CLR
09:49 12.2 °F /  -11 °C 9.2 °F /  -12.7 °C 998.9 in /  33822.8 hPa Calm     82 % 0.3 in /  7.62 mm 158.0 W/m2 CLR
09:54 12.2 °F /  -11 °C 9.1 °F /  -12.7 °C 998.9 in /  33822.8 hPa Calm     81 % 0.3 in /  7.62 mm 195.0 W/m2 CLR
09:59 12.2 °F /  -11 °C 9.1 °F /  -12.7 °C 998.9 in /  33822.8 hPa Calm     81 % 0.3 in /  7.62 mm 265.0 W/m2 CLR
10:05 12.2 °F /  -11 °C 9.1 °F /  -12.7 °C 998.9 in /  33822.8 hPa Calm     81 % 0.3 in /  7.62 mm 204.0 W/m2 CLR
10:10 12.2 °F /  -11 °C 8.9 °F /  -12.8 °C 999.2 in /  33832.9 hPa Calm     80 % 0.3 in /  7.62 mm 241.0 W/m2 CLR
10:15 12.2 °F /  -11 °C 8.9 °F /  -12.8 °C 998.9 in /  33822.8 hPa Calm     80 % 0.0 in /  0 mm 251.0 W/m2 CLR
10:20 12.8 °F /  -10.7 °C 9.2 °F /  -12.7 °C 999.2 in /  33832.9 hPa Calm     79 % 0.0 in /  0 mm 214.0 W/m2 CLR
10:25 12.8 °F /  -10.7 °C 9.2 °F /  -12.7 °C 999.2 in /  33832.9 hPa Calm     79 % 0.0 in /  0 mm 343.0 W/m2 CLR
10:30 13.3 °F /  -10.4 °C 9.6 °F /  -12.4 °C 999.2 in /  33832.9 hPa Calm     78 % 0.0 in /  0 mm 276.0 W/m2 CLR
10:35 13.9 °F /  -10.1 °C 8.5 °F /  -13.1 °C 998.9 in /  33822.8 hPa NNW 20.4 mph /  32.8 km/h 20.4 mph /  32.8 km/h 70 % 0.0 in /  0 mm 269.0 W/m2 CLR
10:40 14.4 °F /  -9.8 °C 8.2 °F /  -13.2 °C 999.2 in /  33832.9 hPa North 29.6 mph /  47.6 km/h 29.6 mph /  47.6 km/h 66 % 0.0 in /  0 mm 176.0 W/m2 CLR
10:45 13.9 °F /  -10.1 °C 8.5 °F /  -13.1 °C 999.5 in /  33843.1 hPa NW 27.4 mph /  44.1 km/h 27.4 mph /  44.1 km/h 70 % 0.0 in /  0 mm 265.0 W/m2 CLR
10:50 13.3 °F /  -10.4 °C 8.6 °F /  -13 °C 999.5 in /  33843.1 hPa WNW 25.9 mph /  41.7 km/h 25.9 mph /  41.7 km/h 73 % 0.0 in /  0 mm 410.0 W/m2 CLR
10:55 13.9 °F /  -10.1 °C 8.9 °F /  -12.8 °C 999.5 in /  33843.1 hPa NW 27.8 mph /  44.7 km/h 27.8 mph /  44.7 km/h 72 % 0.0 in /  0 mm 234.0 W/m2 CLR
11:00 13.3 °F /  -10.4 °C 8.0 °F /  -13.3 °C 999.5 in /  33843.1 hPa NW 16.7 mph /  26.9 km/h 16.7 mph /  26.9 km/h 70 % 0.0 in /  0 mm 220.0 W/m2 CLR
11:05 13.3 °F /  -10.4 °C 8.0 °F /  -13.3 °C 999.5 in /  33843.1 hPa West 7.4 mph /  11.9 km/h 7.4 mph /  11.9 km/h 70 % 0.0 in /  0 mm 258.0 W/m2 CLR
11:10 13.9 °F /  -10.1 °C 8.1 °F /  -13.3 °C 999.5 in /  33843.1 hPa WNW 14.5 mph /  23.3 km/h 14.5 mph /  23.3 km/h 68 % 0.0 in /  0 mm 309.0 W/m2 CLR
11:15 13.9 °F /  -10.1 °C 8.1 °F /  -13.3 °C 999.5 in /  33843.1 hPa NW 14.8 mph /  23.8 km/h 14.8 mph /  23.8 km/h 68 % 0.0 in /  0 mm 232.0 W/m2 CLR
11:20 13.3 °F /  -10.4 °C 6.7 °F /  -14.1 °C 999.5 in /  33843.1 hPa NNW 18.5 mph /  29.8 km/h 18.5 mph /  29.8 km/h 64 % 0.0 in /  0 mm 265.0 W/m2 CLR
11:25 13.3 °F /  -10.4 °C 6.7 °F /  -14.1 °C 999.2 in /  33832.9 hPa West 14.8 mph /  23.8 km/h 14.8 mph /  23.8 km/h 64 % 0.0 in /  0 mm 322.0 W/m2 CLR
11:30 13.3 °F /  -10.4 °C 6.4 °F /  -14.2 °C 999.5 in /  33843.1 hPa WNW 16.7 mph /  26.9 km/h 16.7 mph /  26.9 km/h 63 % 0.0 in /  0 mm 425.0 W/m2 CLR
11:35 13.9 °F /  -10.1 °C 6.7 °F /  -14.1 °C 999.2 in /  33832.9 hPa SW 18.5 mph /  29.8 km/h 18.5 mph /  29.8 km/h 62 % 0.0 in /  0 mm 615.0 W/m2 CLR
11:40 13.9 °F /  -10.1 °C 6.7 °F /  -14.1 °C 999.2 in /  33832.9 hPa West 18.5 mph /  29.8 km/h 18.5 mph /  29.8 km/h 62 % 0.0 in /  0 mm 635.0 W/m2 CLR
11:45 14.4 °F /  -9.8 °C 7.5 °F /  -13.6 °C 999.2 in /  33832.9 hPa NW 18.5 mph /  29.8 km/h 18.5 mph /  29.8 km/h 63 % 0.0 in /  0 mm 661.0 W/m2 CLR
11:50 15.0 °F /  -9.4 °C 7.6 °F /  -13.6 °C 999.2 in /  33832.9 hPa WNW 20.4 mph /  32.8 km/h 20.4 mph /  32.8 km/h 61 % 0.0 in /  0 mm 496.0 W/m2 CLR
11:55 15.6 °F /  -9.1 °C 7.6 °F /  -13.6 °C 998.9 in /  33822.8 hPa West 25.9 mph /  41.7 km/h 25.9 mph /  41.7 km/h 59 % 0.0 in /  0 mm 775.0 W/m2 CLR
12:00 15.6 °F /  -9.1 °C 7.6 °F /  -13.6 °C 999.2 in /  33832.9 hPa WSW 16.7 mph /  26.9 km/h 16.7 mph /  26.9 km/h 59 % 0.0 in /  0 mm 267.0 W/m2 CLR
12:05 15.0 °F /  -9.4 °C 6.3 °F /  -14.3 °C 999.2 in /  33832.9 hPa WNW 24.1 mph /  38.8 km/h 24.1 mph /  38.8 km/h 56 % 0.0 in /  0 mm 237.0 W/m2 CLR
12:10 15.0 °F /  -9.4 °C 6.3 °F /  -14.3 °C 999.2 in /  33832.9 hPa NW 22.2 mph /  35.7 km/h 22.2 mph /  35.7 km/h 56 % 0.0 in /  0 mm 246.0 W/m2 CLR
12:15 14.4 °F /  -9.8 °C 5.8 °F /  -14.6 °C 999.2 in /  33832.9 hPa NW 29.6 mph /  47.6 km/h 29.6 mph /  47.6 km/h 56 % 0.0 in /  0 mm 316.0 W/m2 CLR
12:20 14.4 °F /  -9.8 °C 6.0 °F /  -14.4 °C 999.2 in /  33832.9 hPa NW 17.7 mph /  28.5 km/h 17.7 mph /  28.5 km/h 57 % 0.0 in /  0 mm 385.0 W/m2 CLR
12:25 14.4 °F /  -9.8 °C 5.8 °F /  -14.6 °C 999.2 in /  33832.9 hPa NW 14.8 mph /  23.8 km/h 14.8 mph /  23.8 km/h 56 % 0.0 in /  0 mm 483.0 W/m2 CLR
12:30 15.0 °F /  -9.4 °C 6.3 °F /  -14.3 °C 999.2 in /  33832.9 hPa NNW 24.1 mph /  38.8 km/h 24.1 mph /  38.8 km/h 56 % 0.0 in /  0 mm 534.0 W/m2 CLR
12:35 15.0 °F /  -9.4 °C 6.3 °F /  -14.3 °C 999.5 in /  33843.1 hPa NNW 27.8 mph /  44.7 km/h 27.8 mph /  44.7 km/h 56 % 0.0 in /  0 mm 522.0 W/m2 CLR
12:40 15.6 °F /  -9.1 °C 7.1 °F /  -13.8 °C 999.5 in /  33843.1 hPa NW 20.4 mph /  32.8 km/h 20.4 mph /  32.8 km/h 57 % 0.0 in /  0 mm 415.0 W/m2 CLR
12:45 15.0 °F /  -9.4 °C 6.3 °F /  -14.3 °C 999.5 in /  33843.1 hPa NW 18.5 mph /  29.8 km/h 18.5 mph /  29.8 km/h 56 % 0.0 in /  0 mm 325.0 W/m2 CLR
12:50 15.0 °F /  -9.4 °C 6.3 °F /  -14.3 °C 999.5 in /  33843.1 hPa North 29.6 mph /  47.6 km/h 29.6 mph /  47.6 km/h 56 % 0.0 in /  0 mm 287.0 W/m2 CLR
12:55 15.0 °F /  -9.4 °C 6.3 °F /  -14.3 °C 999.5 in /  33843.1 hPa NNW 25.9 mph /  41.7 km/h 25.9 mph /  41.7 km/h 56 % 0.0 in /  0 mm 251.0 W/m2 CLR
13:00 15.0 °F /  -9.4 °C 6.0 °F /  -14.4 °C 999.5 in /  33843.1 hPa NNW 27.8 mph /  44.7 km/h 27.8 mph /  44.7 km/h 55 % 0.0 in /  0 mm 225.0 W/m2 CLR
13:05 15.0 °F /  -9.4 °C 5.8 °F /  -14.6 °C 999.5 in /  33843.1 hPa NNW 25.9 mph /  41.7 km/h 25.9 mph /  41.7 km/h 54 % 0.0 in /  0 mm 214.0 W/m2 CLR
13:10 15.0 °F /  -9.4 °C 5.8 °F /  -14.6 °C 999.5 in /  33843.1 hPa NNW 24.1 mph /  38.8 km/h 24.1 mph /  38.8 km/h 54 % 0.0 in /  0 mm 206.0 W/m2 CLR
13:15 14.4 °F /  -9.8 °C 5.2 °F /  -14.9 °C 999.5 in /  33843.1 hPa NNW 18.5 mph /  29.8 km/h 18.5 mph /  29.8 km/h 54 % 0.0 in /  0 mm 206.0 W/m2 CLR
13:20 14.4 °F /  -9.8 °C 5.0 °F /  -15 °C 999.5 in /  33843.1 hPa NNW 25.9 mph /  41.7 km/h 25.9 mph /  41.7 km/h 53 % 0.0 in /  0 mm 192.0 W/m2 CLR
13:25 14.4 °F /  -9.8 °C 5.0 °F /  -15 °C 999.2 in /  33832.9 hPa NNW 18.5 mph /  29.8 km/h 18.5 mph /  29.8 km/h 53 % 0.0 in /  0 mm 195.0 W/m2 CLR
13:30 14.4 °F /  -9.8 °C 5.2 °F /  -14.9 °C 999.2 in /  33832.9 hPa NNW 16.7 mph /  26.9 km/h 16.7 mph /  26.9 km/h 54 % 0.0 in /  0 mm 185.0 W/m2 CLR
13:35 14.4 °F /  -9.8 °C 5.2 °F /  -14.9 °C 999.2 in /  33832.9 hPa NNW 16.7 mph /  26.9 km/h 16.7 mph /  26.9 km/h 54 % 0.0 in /  0 mm 167.0 W/m2 CLR
13:40 14.4 °F /  -9.8 °C 5.8 °F /  -14.6 °C 999.2 in /  33832.9 hPa NW 14.5 mph /  23.3 km/h 14.5 mph /  23.3 km/h 56 % 0.0 in /  0 mm 148.0 W/m2 CLR
13:45 14.4 °F /  -9.8 °C 5.2 °F /  -14.9 °C 999.2 in /  33832.9 hPa WNW 16.7 mph /  26.9 km/h 16.7 mph /  26.9 km/h 54 % 0.0 in /  0 mm 132.0 W/m2 CLR
13:50 13.9 °F /  -10.1 °C 4.4 °F /  -15.3 °C 998.9 in /  33822.8 hPa West 16.1 mph /  25.9 km/h 16.1 mph /  25.9 km/h 53 % 0.0 in /  0 mm 125.0 W/m2 CLR
13:55 13.9 °F /  -10.1 °C 4.7 °F /  -15.2 °C 998.9 in /  33822.8 hPa WNW 8.0 mph /  12.9 km/h 8.0 mph /  12.9 km/h 54 % 0.0 in /  0 mm 178.0 W/m2 CLR
14:00 14.4 °F /  -9.8 °C 5.0 °F /  -15 °C 998.9 in /  33822.8 hPa West 16.7 mph /  26.9 km/h 16.7 mph /  26.9 km/h 53 % 0.0 in /  0 mm 197.0 W/m2 CLR
14:05 14.4 °F /  -9.8 °C 5.0 °F /  -15 °C 998.9 in /  33822.8 hPa West 1.9 mph /  3.1 km/h 1.9 mph /  3.1 km/h 53 % 0.0 in /  0 mm 200.0 W/m2 CLR
14:10 14.4 °F /  -9.8 °C 5.2 °F /  -14.9 °C 998.9 in /  33822.8 hPa West 9.3 mph /  15 km/h 9.3 mph /  15 km/h 54 % 0.0 in /  0 mm 202.0 W/m2 CLR
14:15 14.4 °F /  -9.8 °C 5.0 °F /  -15 °C 998.9 in /  33822.8 hPa NW 13.0 mph /  20.9 km/h 13.0 mph /  20.9 km/h 53 % 0.0 in /  0 mm 207.0 W/m2 CLR
14:20 14.4 °F /  -9.8 °C 5.0 °F /  -15 °C 998.9 in /  33822.8 hPa WNW 11.1 mph /  17.9 km/h 11.1 mph /  17.9 km/h 53 % 0.0 in /  0 mm 220.0 W/m2 CLR
14:25 14.4 °F /  -9.8 °C 4.7 °F /  -15.2 °C 998.9 in /  33822.8 hPa WNW 1.9 mph /  3.1 km/h 1.9 mph /  3.1 km/h 52 % 0.0 in /  0 mm 204.0 W/m2 CLR
14:26 14.4 °F /  -9.8 °C 4.7 °F /  -15.2 °C 998.9 in /  33822.8 hPa WNW 1.9 mph /  3.1 km/h   52 % 0.0 in /  0 mm 204.0 W/m2 CLR
14:31 15.0 °F /  -9.4 °C 4.9 °F /  -15.1 °C 998.9 in /  33822.8 hPa West 3.7 mph /  6 km/h 3.7 mph /  6 km/h 51 % 0.0 in /  0 mm 197.0 W/m2 CLR
14:36 15.0 °F /  -9.4 °C 5.2 °F /  -14.9 °C 998.9 in /  33822.8 hPa WNW 1.9 mph /  3.1 km/h 1.9 mph /  3.1 km/h 52 % 0.0 in /  0 mm 199.0 W/m2 CLR
14:41 15.0 °F /  -9.4 °C 5.5 °F /  -14.7 °C 998.9 in /  33822.8 hPa Calm     53 % 0.0 in /  0 mm 186.0 W/m2 CLR
14:46 15.0 °F /  -9.4 °C 4.7 °F /  -15.2 °C 998.9 in /  33822.8 hPa WNW 13.0 mph /  20.9 km/h 13.0 mph /  20.9 km/h 50 % 0.0 in /  0 mm 169.0 W/m2 CLR
14:51 15.0 °F /  -9.4 °C 4.1 °F /  -15.5 °C 998.9 in /  33822.8 hPa WNW 9.7 mph /  15.6 km/h 9.7 mph /  15.6 km/h 48 % 0.0 in /  0 mm 171.0 W/m2 CLR
14:56 14.4 °F /  -9.8 °C 4.2 °F /  -15.4 °C 998.9 in /  33822.8 hPa NW 9.3 mph /  15 km/h 9.3 mph /  15 km/h 50 % 0.0 in /  0 mm 155.0 W/m2 CLR
15:01 14.4 °F /  -9.8 °C 4.7 °F /  -15.2 °C 998.9 in /  33822.8 hPa Calm     52 % 0.0 in /  0 mm 153.0 W/m2 CLR
15:06 14.4 °F /  -9.8 °C 4.2 °F /  -15.4 °C 998.9 in /  33822.8 hPa NW 11.3 mph /  18.2 km/h 11.3 mph /  18.2 km/h 50 % 0.0 in /  0 mm 169.0 W/m2 CLR
15:11 15.0 °F /  -9.4 °C 4.7 °F /  -15.2 °C 998.9 in /  33822.8 hPa NNW 14.8 mph /  23.8 km/h 14.8 mph /  23.8 km/h 50 % 0.0 in /  0 mm 167.0 W/m2 CLR
15:16 15.0 °F /  -9.4 °C 4.9 °F /  -15.1 °C 999.2 in /  33832.9 hPa North 18.5 mph /  29.8 km/h 18.5 mph /  29.8 km/h 51 % 0.0 in /  0 mm 165.0 W/m2 CLR
15:21 14.4 °F /  -9.8 °C 4.7 °F /  -15.2 °C 999.2 in /  33832.9 hPa North 18.5 mph /  29.8 km/h 18.5 mph /  29.8 km/h 52 % 0.0 in /  0 mm 174.0 W/m2 CLR
15:26 14.4 °F /  -9.8 °C 5.2 °F /  -14.9 °C 999.2 in /  33832.9 hPa NNW 19.3 mph /  31.1 km/h 19.3 mph /  31.1 km/h 54 % 0.0 in /  0 mm 174.0 W/m2 CLR
15:31 14.4 °F /  -9.8 °C 5.2 °F /  -14.9 °C 999.2 in /  33832.9 hPa North 14.8 mph /  23.8 km/h 14.8 mph /  23.8 km/h 54 % 0.0 in /  0 mm 183.0 W/m2 CLR
15:36 14.4 °F /  -9.8 °C 5.8 °F /  -14.6 °C 999.2 in /  33832.9 hPa NNW 14.8 mph /  23.8 km/h 14.8 mph /  23.8 km/h 56 % 0.0 in /  0 mm 207.0 W/m2 CLR
15:41 14.4 °F /  -9.8 °C 5.5 °F /  -14.7 °C 999.2 in /  33832.9 hPa NW 16.7 mph /  26.9 km/h 16.7 mph /  26.9 km/h 55 % 0.0 in /  0 mm 234.0 W/m2 CLR
15:46 14.4 °F /  -9.8 °C 5.0 °F /  -15 °C 999.2 in /  33832.9 hPa North 18.5 mph /  29.8 km/h 18.5 mph /  29.8 km/h 53 % 0.0 in /  0 mm 253.0 W/m2 CLR
15:51 15.0 °F /  -9.4 °C 5.5 °F /  -14.7 °C 999.2 in /  33832.9 hPa NW 18.5 mph /  29.8 km/h 18.5 mph /  29.8 km/h 53 % 0.0 in /  0 mm 292.0 W/m2 CLR
15:56 15.0 °F /  -9.4 °C 6.0 °F /  -14.4 °C 999.2 in /  33832.9 hPa North 18.5 mph /  29.8 km/h 18.5 mph /  29.8 km/h 55 % 0.0 in /  0 mm 318.0 W/m2 CLR
16:01 15.0 °F /  -9.4 °C 6.0 °F /  -14.4 °C 999.2 in /  33832.9 hPa NNE 18.5 mph /  29.8 km/h 18.5 mph /  29.8 km/h 55 % 0.0 in /  0 mm 359.0 W/m2 CLR
16:06 15.0 °F /  -9.4 °C 6.3 °F /  -14.3 °C 999.2 in /  33832.9 hPa North 20.4 mph /  32.8 km/h 20.4 mph /  32.8 km/h 56 % 0.0 in /  0 mm 323.0 W/m2 CLR
16:11 15.0 °F /  -9.4 °C 6.0 °F /  -14.4 °C 999.5 in /  33843.1 hPa NNW 18.5 mph /  29.8 km/h 18.5 mph /  29.8 km/h 55 % 0.0 in /  0 mm 265.0 W/m2 CLR
16:16 15.0 °F /  -9.4 °C 6.6 °F /  -14.1 °C 999.5 in /  33843.1 hPa NNW 18.5 mph /  29.8 km/h 18.5 mph /  29.8 km/h 57 % 0.0 in /  0 mm 241.0 W/m2 CLR
16:21 15.0 °F /  -9.4 °C 6.6 °F /  -14.1 °C 999.5 in /  33843.1 hPa NW 16.7 mph /  26.9 km/h 16.7 mph /  26.9 km/h 57 % 0.0 in /  0 mm 216.0 W/m2 CLR
16:26 15.0 °F /  -9.4 °C 6.3 °F /  -14.3 °C 999.5 in /  33843.1 hPa NNW 13.0 mph /  20.9 km/h 13.0 mph /  20.9 km/h 56 % 0.0 in /  0 mm 241.0 W/m2 CLR
16:31 15.0 °F /  -9.4 °C 6.8 °F /  -14 °C 999.5 in /  33843.1 hPa North 14.8 mph /  23.8 km/h 14.8 mph /  23.8 km/h 58 % 0.0 in /  0 mm 327.0 W/m2 CLR
16:36 15.0 °F /  -9.4 °C 6.8 °F /  -14 °C 999.5 in /  33843.1 hPa North 11.1 mph /  17.9 km/h 11.1 mph /  17.9 km/h 58 % 0.0 in /  0 mm 216.0 W/m2 CLR
16:41 15.0 °F /  -9.4 °C 6.3 °F /  -14.3 °C 999.5 in /  33843.1 hPa North 18.5 mph /  29.8 km/h 18.5 mph /  29.8 km/h 56 % 0.0 in /  0 mm 153.0 W/m2 CLR
16:46 14.4 °F /  -9.8 °C 5.8 °F /  -14.6 °C 999.5 in /  33843.1 hPa North 14.8 mph /  23.8 km/h 14.8 mph /  23.8 km/h 56 % 0.0 in /  0 mm 142.0 W/m2 CLR
16:51 14.4 °F /  -9.8 °C 5.8 °F /  -14.6 °C 999.5 in /  33843.1 hPa NNW 14.5 mph /  23.3 km/h 14.5 mph /  23.3 km/h 56 % 0.0 in /  0 mm 172.0 W/m2 CLR
16:56 14.4 °F /  -9.8 °C 6.0 °F /  -14.4 °C 999.5 in /  33843.1 hPa North 16.7 mph /  26.9 km/h 16.7 mph /  26.9 km/h 57 % 0.0 in /  0 mm 202.0 W/m2 CLR
17:01 14.4 °F /  -9.8 °C 6.0 °F /  -14.4 °C 999.5 in /  33843.1 hPa NNW 16.7 mph /  26.9 km/h 16.7 mph /  26.9 km/h 57 % 0.0 in /  0 mm 188.0 W/m2 CLR
17:06 14.4 °F /  -9.8 °C 6.0 °F /  -14.4 °C 999.5 in /  33843.1 hPa North 20.9 mph /  33.6 km/h 20.9 mph /  33.6 km/h 57 % 0.0 in /  0 mm 176.0 W/m2 CLR
17:11 14.4 °F /  -9.8 °C 6.3 °F /  -14.3 °C 999.9 in /  33856.6 hPa NNW 16.7 mph /  26.9 km/h 16.7 mph /  26.9 km/h 58 % 0.0 in /  0 mm 195.0 W/m2 CLR
17:16 14.4 °F /  -9.8 °C 6.5 °F /  -14.2 °C 999.9 in /  33856.6 hPa North 18.5 mph /  29.8 km/h 18.5 mph /  29.8 km/h 59 % 0.0 in /  0 mm 153.0 W/m2 CLR
17:21 14.4 °F /  -9.8 °C 6.5 °F /  -14.2 °C 999.9 in /  33856.6 hPa NNW 18.5 mph /  29.8 km/h 18.5 mph /  29.8 km/h 59 % 0.0 in /  0 mm 308.0 W/m2 CLR
17:26 14.4 °F /  -9.8 °C 6.3 °F /  -14.3 °C 999.9 in /  33856.6 hPa North 18.5 mph /  29.8 km/h 18.5 mph /  29.8 km/h 58 % 0.0 in /  0 mm 197.0 W/m2 CLR
17:31 14.4 °F /  -9.8 °C 6.3 °F /  -14.3 °C 999.9 in /  33856.6 hPa North 14.8 mph /  23.8 km/h 14.8 mph /  23.8 km/h 58 % 0.0 in /  0 mm 162.0 W/m2 CLR
17:36 14.4 °F /  -9.8 °C 6.5 °F /  -14.2 °C 999.9 in /  33856.6 hPa North 16.1 mph /  25.9 km/h 16.1 mph /  25.9 km/h 59 % 0.0 in /  0 mm 190.0 W/m2 CLR
17:41 14.4 °F /  -9.8 °C 6.3 °F /  -14.3 °C 999.9 in /  33856.6 hPa North 13.0 mph /  20.9 km/h 13.0 mph /  20.9 km/h 58 % 0.0 in /  0 mm 144.0 W/m2 CLR
17:44 13.9 °F /  -10.1 °C 6.0 °F /  -14.4 °C 999.9 in /  33856.6 hPa NNE 14.8 mph /  23.8 km/h 14.8 mph /  23.8 km/h 59 % 0.0 in /  0 mm 176.0 W/m2 CLR
17:50 13.9 °F /  -10.1 °C 5.5 °F /  -14.7 °C 1000.2 in /  33866.8 hPa North 18.5 mph /  29.8 km/h 18.5 mph /  29.8 km/h 57 % 0.0 in /  0 mm 174.0 W/m2 CLR
17:55 13.9 °F /  -10.1 °C 5.5 °F /  -14.7 °C 1000.2 in /  33866.8 hPa NNE 13.0 mph /  20.9 km/h 13.0 mph /  20.9 km/h 57 % 0.0 in /  0 mm 146.0 W/m2 CLR
18:00 13.9 °F /  -10.1 °C 5.2 °F /  -14.9 °C 1000.2 in /  33866.8 hPa NNE 14.8 mph /  23.8 km/h 14.8 mph /  23.8 km/h 56 % 0.0 in /  0 mm 130.0 W/m2 CLR
18:05 13.9 °F /  -10.1 °C 5.2 °F /  -14.9 °C 1000.2 in /  33866.8 hPa North 14.8 mph /  23.8 km/h 14.8 mph /  23.8 km/h 56 % 0.0 in /  0 mm 118.0 W/m2 CLR
18:10 13.3 °F /  -10.4 °C 5.0 °F /  -15 °C 1000.2 in /  33866.8 hPa NNE 13.0 mph /  20.9 km/h 13.0 mph /  20.9 km/h 57 % 0.0 in /  0 mm 95.0 W/m2 CLR
18:15 13.3 °F /  -10.4 °C 4.7 °F /  -15.2 °C 1000.2 in /  33866.8 hPa North 14.8 mph /  23.8 km/h 14.8 mph /  23.8 km/h 56 % 0.0 in /  0 mm 84.0 W/m2 CLR
18:20 13.3 °F /  -10.4 °C 4.7 °F /  -15.2 °C 1000.2 in /  33866.8 hPa North 11.1 mph /  17.9 km/h 11.1 mph /  17.9 km/h 56 % 0.0 in /  0 mm 70.0 W/m2 FEW
18:25 13.3 °F /  -10.4 °C 4.7 °F /  -15.2 °C 1000.2 in /  33866.8 hPa Calm     56 % 0.0 in /  0 mm 54.0 W/m2 SCT
18:30 13.3 °F /  -10.4 °C 4.7 °F /  -15.2 °C 1000.2 in /  33866.8 hPa Calm     56 % 0.0 in /  0 mm 37.0 W/m2 BKN
18:35 12.8 °F /  -10.7 °C 4.2 °F /  -15.4 °C 999.9 in /  33856.6 hPa Calm     56 % 0.0 in /  0 mm 28.0 W/m2 BKN
18:40 12.2 °F /  -11 °C 3.7 °F /  -15.7 °C 1000.2 in /  33866.8 hPa Calm     56 % 0.0 in /  0 mm 21.0 W/m2 BKN
18:45 11.7 °F /  -11.3 °C 3.7 °F /  -15.7 °C 1000.2 in /  33866.8 hPa Calm     58 % 0.0 in /  0 mm 14.0 W/m2 BKN
18:50 11.1 °F /  -11.6 °C 3.4 °F /  -15.9 °C 1000.2 in /  33866.8 hPa Calm     59 % 0.0 in /  0 mm 7.0 W/m2 BKN
18:55 10.6 °F /  -11.9 °C 3.3 °F /  -15.9 °C 1000.2 in /  33866.8 hPa Calm     61 % 0.0 in /  0 mm 0.0 W/m2 OVC
19:00 10.0 °F /  -12.2 °C 3.1 °F /  -16.1 °C 1000.2 in /  33866.8 hPa Calm     62 % 0.0 in /  0 mm 0.0 W/m2 OVC
19:05 9.4 °F /  -12.6 °C 2.9 °F /  -16.2 °C 1000.2 in /  33866.8 hPa Calm     64 % 0.0 in /  0 mm 0.0 W/m2 CLR
19:10 9.4 °F /  -12.6 °C 3.4 °F /  -15.9 °C 1000.2 in /  33866.8 hPa Calm     66 % 0.0 in /  0 mm 0.0 W/m2 CLR
19:15 8.9 °F /  -12.8 °C 3.1 °F /  -16.1 °C 1000.2 in /  33866.8 hPa Calm     67 % 0.0 in /  0 mm 0.0 W/m2 CLR
19:20 8.9 °F /  -12.8 °C 3.3 °F /  -15.9 °C 1000.2 in /  33866.8 hPa Calm     68 % 0.0 in /  0 mm 0.0 W/m2 CLR
19:25 8.9 °F /  -12.8 °C 3.5 °F /  -15.8 °C 1000.6 in /  33880.3 hPa Calm     69 % 0.0 in /  0 mm 0.0 W/m2 CLR
19:30 8.9 °F /  -12.8 °C 3.5 °F /  -15.8 °C 1000.6 in /  33880.3 hPa Calm     69 % 0.0 in /  0 mm 0.0 W/m2 CLR
19:35 8.3 °F /  -13.2 °C 3.2 °F /  -16 °C 1000.6 in /  33880.3 hPa Calm     70 % 0.0 in /  0 mm 0.0 W/m2 CLR
19:40 8.3 °F /  -13.2 °C 3.2 °F /  -16 °C 1000.6 in /  33880.3 hPa Calm     70 % 0.0 in /  0 mm 0.0 W/m2 CLR
19:45 8.3 °F /  -13.2 °C 3.4 °F /  -15.9 °C 1000.9 in /  33890.5 hPa Calm     71 % 0.0 in /  0 mm 0.0 W/m2 CLR
19:50 7.8 °F /  -13.4 °C 3.1 °F /  -16.1 °C 1000.9 in /  33890.5 hPa Calm     72 % 0.0 in /  0 mm 0.0 W/m2 CLR
19:55 7.8 °F /  -13.4 °C 3.2 °F /  -16 °C 1000.9 in /  33890.5 hPa Calm     73 % 0.0 in /  0 mm 0.0 W/m2 CLR
20:00 7.2 °F /  -13.8 °C 2.9 °F /  -16.2 °C 1000.9 in /  33890.5 hPa Calm     74 % 0.0 in /  0 mm 0.0 W/m2 CLR
20:05 6.7 °F /  -14.1 °C 2.6 °F /  -16.3 °C 1001.2 in /  33900.6 hPa Calm     75 % 0.0 in /  0 mm 0.0 W/m2 CLR
20:10 6.7 °F /  -14.1 °C 2.7 °F /  -16.3 °C 1001.2 in /  33900.6 hPa Calm     76 % 0.0 in /  0 mm 0.0 W/m2 CLR
20:15 6.7 °F /  -14.1 °C 2.9 °F /  -16.2 °C 1001.2 in /  33900.6 hPa Calm     77 % 0.0 in /  0 mm 0.0 W/m2 CLR
20:20 6.1 °F /  -14.4 °C 2.6 °F /  -16.3 °C 1001.2 in /  33900.6 hPa Calm     78 % 0.0 in /  0 mm 0.0 W/m2 CLR
20:25 6.1 °F /  -14.4 °C 2.7 °F /  -16.3 °C 1001.2 in /  33900.6 hPa Calm     79 % 0.0 in /  0 mm 0.0 W/m2 CLR
20:30 5.6 °F /  -14.7 °C 2.2 °F /  -16.6 °C 1001.2 in /  33900.6 hPa Calm     79 % 0.0 in /  0 mm 0.0 W/m2 CLR
20:35 5.6 °F /  -14.7 °C 2.4 °F /  -16.4 °C 1001.2 in /  33900.6 hPa Calm     80 % 0.0 in /  0 mm 0.0 W/m2 CLR
20:40 5.0 °F /  -15 °C 2.0 °F /  -16.7 °C 1001.2 in /  33900.6 hPa Calm     81 % 0.0 in /  0 mm 0.0 W/m2 CLR
20:45 5.0 °F /  -15 °C 2.0 °F /  -16.7 °C 1001.2 in /  33900.6 hPa Calm     81 % 0.0 in /  0 mm 0.0 W/m2 CLR
20:50 4.4 °F /  -15.3 °C 1.6 °F /  -16.9 °C 1001.2 in /  33900.6 hPa Calm     82 % 0.0 in /  0 mm 0.0 W/m2 CLR
20:55 4.4 °F /  -15.3 °C 1.6 °F /  -16.9 °C 1001.2 in /  33900.6 hPa Calm     82 % 0.0 in /  0 mm 0.0 W/m2 CLR
21:00 4.4 °F /  -15.3 °C 1.6 °F /  -16.9 °C 1001.2 in /  33900.6 hPa Calm     82 % 0.0 in /  0 mm 0.0 W/m2 CLR
21:05 4.4 °F /  -15.3 °C 1.6 °F /  -16.9 °C 1001.2 in /  33900.6 hPa Calm     82 % 0.0 in /  0 mm 0.0 W/m2 CLR
21:10 4.4 °F /  -15.3 °C 1.6 °F /  -16.9 °C 1001.2 in /  33900.6 hPa Calm     82 % 0.0 in /  0 mm 0.0 W/m2 CLR
21:15 3.9 °F /  -15.6 °C 1.3 °F /  -17.1 °C 1001.6 in /  33914.2 hPa Calm     83 % 0.0 in /  0 mm 0.0 W/m2 CLR
21:20 3.9 °F /  -15.6 °C 1.3 °F /  -17.1 °C 1001.6 in /  33914.2 hPa Calm     83 % 0.0 in /  0 mm 0.0 W/m2 CLR
21:25 3.9 °F /  -15.6 °C 1.4 °F /  -17 °C 1001.6 in /  33914.2 hPa Calm     84 % 0.0 in /  0 mm 0.0 W/m2 CLR
21:30 3.9 °F /  -15.6 °C 1.4 °F /  -17 °C 1001.6 in /  33914.2 hPa Calm     84 % 0.0 in /  0 mm 0.0 W/m2 CLR
21:35 3.9 °F /  -15.6 °C 1.6 °F /  -16.9 °C 1001.6 in /  33914.2 hPa Calm     85 % 0.0 in /  0 mm 0.0 W/m2 CLR
21:40 3.9 °F /  -15.6 °C 1.4 °F /  -17 °C 1001.6 in /  33914.2 hPa Calm     84 % 0.0 in /  0 mm 0.0 W/m2 CLR
21:45 3.9 °F /  -15.6 °C 1.6 °F /  -16.9 °C 1001.2 in /  33900.6 hPa Calm     85 % 0.0 in /  0 mm 0.0 W/m2 CLR
21:50 3.9 °F /  -15.6 °C 1.6 °F /  -16.9 °C 1001.2 in /  33900.6 hPa Calm     85 % 0.0 in /  0 mm 0.0 W/m2 CLR
21:55 4.4 °F /  -15.3 °C 2.2 °F /  -16.6 °C 1001.6 in /  33914.2 hPa Calm     85 % 0.0 in /  0 mm 0.0 W/m2 CLR
22:00 4.4 °F /  -15.3 °C 2.3 °F /  -16.5 °C 1001.6 in /  33914.2 hPa Calm     86 % 0.0 in /  0 mm 0.0 W/m2 CLR
22:05 4.4 °F /  -15.3 °C 2.3 °F /  -16.5 °C 1001.6 in /  33914.2 hPa Calm     86 % 0.0 in /  0 mm 0.0 W/m2 CLR
22:10 3.9 °F /  -15.6 °C 1.8 °F /  -16.8 °C 1001.6 in /  33914.2 hPa Calm     86 % 0.0 in /  0 mm 0.0 W/m2 CLR
22:15 3.9 °F /  -15.6 °C 1.6 °F /  -16.9 °C 1001.6 in /  33914.2 hPa Calm     85 % 0.0 in /  0 mm 0.0 W/m2 CLR
22:20 4.4 °F /  -15.3 °C 2.2 °F /  -16.6 °C 1001.6 in /  33914.2 hPa Calm     85 % 0.0 in /  0 mm 0.0 W/m2 CLR
22:25 3.9 °F /  -15.6 °C 1.6 °F /  -16.9 °C 1001.6 in /  33914.2 hPa Calm     85 % 0.0 in /  0 mm 0.0 W/m2 CLR
22:30 4.4 °F /  -15.3 °C 2.2 °F /  -16.6 °C 1001.6 in /  33914.2 hPa Calm     85 % 0.0 in /  0 mm 0.0 W/m2 CLR
22:35 3.9 °F /  -15.6 °C 1.8 °F /  -16.8 °C 1001.6 in /  33914.2 hPa Calm     86 % 0.0 in /  0 mm 0.0 W/m2 CLR
22:40 3.9 °F /  -15.6 °C 1.8 °F /  -16.8 °C 1001.6 in /  33914.2 hPa Calm     86 % 0.0 in /  0 mm 0.0 W/m2 CLR
22:45 3.9 °F /  -15.6 °C 1.6 °F /  -16.9 °C 1001.6 in /  33914.2 hPa Calm     85 % 0.0 in /  0 mm 0.0 W/m2 CLR
22:51 3.9 °F /  -15.6 °C 1.8 °F /  -16.8 °C 1001.6 in /  33914.2 hPa Calm     86 % 0.0 in /  0 mm 0.0 W/m2 CLR
22:56 3.9 °F /  -15.6 °C 1.8 °F /  -16.8 °C 1001.6 in /  33914.2 hPa Calm     86 % 0.0 in /  0 mm 0.0 W/m2 CLR
23:01 3.9 °F /  -15.6 °C 1.8 °F /  -16.8 °C 1001.6 in /  33914.2 hPa Calm     86 % 0.0 in /  0 mm 0.0 W/m2 CLR
23:06 3.9 °F /  -15.6 °C 1.8 °F /  -16.8 °C 1001.6 in /  33914.2 hPa Calm     86 % 0.0 in /  0 mm 0.0 W/m2 CLR
23:11 3.9 °F /  -15.6 °C 1.8 °F /  -16.8 °C 1001.6 in /  33914.2 hPa Calm     86 % 0.0 in /  0 mm 0.0 W/m2 CLR
23:16 3.9 °F /  -15.6 °C 1.9 °F /  -16.7 °C 1001.6 in /  33914.2 hPa Calm     87 % 0.0 in /  0 mm 0.0 W/m2 CLR
23:21 3.9 °F /  -15.6 °C 1.9 °F /  -16.7 °C 1001.6 in /  33914.2 hPa Calm     87 % 0.0 in /  0 mm 0.0 W/m2 CLR
23:26 3.9 °F /  -15.6 °C 1.9 °F /  -16.7 °C 1001.6 in /  33914.2 hPa Calm     87 % 0.0 in /  0 mm 0.0 W/m2 CLR
23:31 3.9 °F /  -15.6 °C 1.9 °F /  -16.7 °C 1001.2 in /  33900.6 hPa Calm     87 % 0.0 in /  0 mm 0.0 W/m2 CLR
23:36 3.9 °F /  -15.6 °C 1.9 °F /  -16.7 °C 1001.2 in /  33900.6 hPa Calm     87 % 0.0 in /  0 mm 0.0 W/m2 CLR
23:41 3.9 °F /  -15.6 °C 1.9 °F /  -16.7 °C 1001.2 in /  33900.6 hPa Calm     87 % 0.0 in /  0 mm 0.0 W/m2 CLR
23:46 3.9 °F /  -15.6 °C 1.9 °F /  -16.7 °C 1001.2 in /  33900.6 hPa Calm     87 % 0.0 in /  0 mm 0.0 W/m2 CLR
23:51 3.3 °F /  -15.9 °C 1.4 °F /  -17 °C 1001.2 in /  33900.6 hPa Calm     87 % 0.0 in /  0 mm 0.0 W/m2 CLR
23:56 3.9 °F /  -15.6 °C 1.9 °F /  -16.7 °C 1001.2 in /  33900.6 hPa Calm     87 % 0.0 in /  0 mm 0.0 W/m2 CLR
Lo Temps de Massalio
Compliments of Weather Underground - 1.25 mb